createdAt,value
2019-01-19T00:01:22.699Z,20.80
2019-01-19T00:04:17.826Z,22.83
2019-01-19T00:07:13.041Z,31.23
2019-01-19T00:10:18.693Z,27.77
2019-01-19T00:13:15.249Z,21.67
2019-01-19T00:16:07.112Z,21.83
2019-01-19T00:19:11.886Z,34.00
2019-01-19T00:22:26.372Z,33.40
2019-01-19T00:25:17.845Z,26.33
2019-01-19T00:27:52.101Z,46.17
2019-01-19T00:30:26.369Z,31.40
2019-01-19T00:33:22.729Z,21.97
2019-01-19T00:36:05.276Z,17.67
2019-01-19T00:38:51.082Z,17.63
2019-01-19T00:41:43.121Z,24.90
2019-01-19T00:44:50.438Z,20.60
2019-01-19T00:47:24.709Z,17.00
2019-01-19T00:50:10.644Z,20.13
2019-01-19T00:52:44.901Z,17.57
2019-01-19T00:55:33.825Z,17.53
2019-01-19T00:58:10.581Z,17.33
2019-01-19T01:01:02.428Z,17.80
2019-01-19T01:04:02.303Z,15.00
2019-01-19T01:06:51.141Z,16.23
2019-01-19T01:09:31.159Z,16.97
2019-01-19T01:12:25.503Z,16.93
2019-01-19T01:15:27.884Z,16.33
2019-01-19T01:18:02.185Z,19.77
2019-01-19T01:20:54.234Z,16.10
2019-01-19T01:23:49.086Z,15.13
2019-01-19T01:26:54.577Z,16.70
2019-01-19T01:29:54.391Z,15.80
2019-01-19T01:32:49.250Z,20.10
2019-01-19T01:35:33.040Z,21.43
2019-01-19T01:38:29.497Z,17.70
2019-01-19T01:41:19.940Z,17.60
2019-01-19T01:44:20.236Z,16.30
2019-01-19T01:47:43.959Z,18.00
2019-01-19T01:50:21.258Z,17.40
2019-01-19T01:53:11.133Z,13.67
2019-01-19T01:55:40.858Z,15.07
2019-01-19T01:58:15.384Z,17.13
2019-01-19T02:01:00.857Z,16.03
2019-01-19T02:04:00.517Z,16.63
2019-01-19T02:07:05.970Z,17.20
2019-01-19T02:09:54.741Z,17.23
2019-01-19T02:12:37.678Z,13.90
2019-01-19T02:15:32.684Z,17.37
2019-01-19T02:18:42.739Z,15.10
2019-01-19T02:21:40.573Z,14.73
2019-01-19T02:24:23.617Z,17.50
2019-01-19T02:27:33.397Z,13.70
2019-01-19T02:30:29.988Z,11.10
2019-01-19T02:33:32.429Z,10.13
2019-01-19T02:36:42.955Z,10.07
2019-01-19T02:39:32.027Z,8.53
2019-01-19T02:42:12.222Z,8.97
2019-01-19T02:44:55.168Z,15.80
2019-01-19T02:47:44.288Z,7.33
2019-01-19T02:50:36.476Z,10.73
2019-01-19T02:53:16.195Z,11.93
2019-01-19T02:55:56.338Z,8.57
2019-01-19T02:58:38.801Z,10.13
2019-01-19T03:01:51.894Z,8.70
2019-01-19T03:04:57.480Z,9.10
2019-01-19T03:07:51.842Z,9.93
2019-01-19T03:10:50.123Z,9.67
2019-01-19T03:13:29.847Z,11.33
2019-01-19T03:16:42.939Z,8.67
2019-01-19T03:19:36.460Z,8.97
2019-01-19T03:22:25.317Z,7.67
2019-01-19T03:25:18.741Z,8.67
2019-01-19T03:28:16.496Z,7.53
2019-01-19T03:31:29.677Z,10.13
2019-01-19T03:34:12.459Z,11.77
2019-01-19T03:37:04.676Z,9.53
2019-01-19T03:39:50.618Z,8.47
2019-01-19T03:42:50.044Z,8.40
2019-01-19T03:45:49.452Z,7.87
2019-01-19T03:48:34.891Z,7.70
2019-01-19T03:51:39.098Z,10.57
2019-01-19T03:54:32.527Z,8.47
2019-01-19T03:57:06.917Z,7.47
2019-01-19T04:00:09.751Z,8.83
2019-01-19T04:03:09.343Z,8.70
2019-01-19T04:05:48.385Z,7.63
2019-01-19T04:08:55.509Z,7.80
2019-01-19T04:11:45.809Z,8.10
2019-01-19T04:14:46.857Z,7.73
2019-01-19T04:17:27.223Z,8.37
2019-01-19T04:20:19.062Z,6.90
2019-01-19T04:22:48.646Z,7.40
2019-01-19T04:25:23.254Z,7.53
2019-01-19T04:27:52.808Z,7.93
2019-01-19T04:30:22.427Z,7.37
2019-01-19T04:32:51.975Z,8.53
2019-01-19T04:35:21.509Z,8.70
2019-01-19T04:37:51.074Z,9.20
2019-01-19T04:40:20.597Z,8.73
2019-01-19T04:42:50.413Z,6.53
2019-01-19T04:45:19.964Z,8.23
2019-01-19T04:47:49.496Z,7.17
2019-01-19T04:50:19.043Z,9.40
2019-01-19T04:52:48.586Z,5.83
2019-01-19T04:55:18.133Z,8.53
2019-01-19T04:57:47.675Z,8.03
2019-01-19T05:00:19.062Z,6.80
2019-01-19T05:02:48.623Z,7.90
2019-01-19T05:05:18.219Z,9.97
2019-01-19T05:07:47.769Z,7.90
2019-01-19T05:10:17.306Z,8.40
2019-01-19T05:12:46.874Z,7.53
2019-01-19T05:15:18.871Z,5.90
2019-01-19T05:17:48.592Z,11.07
2019-01-19T05:20:18.294Z,7.83
2019-01-19T05:22:47.835Z,8.60
2019-01-19T05:25:17.429Z,9.07
2019-01-19T05:27:46.967Z,7.20
2019-01-19T05:30:18.800Z,7.30
2019-01-19T05:32:48.424Z,9.67
2019-01-19T05:35:18.149Z,9.60
2019-01-19T05:37:47.702Z,7.10
2019-01-19T05:40:17.260Z,7.00
2019-01-19T05:42:46.859Z,8.10
2019-01-19T05:45:16.730Z,6.13
2019-01-19T05:47:46.294Z,11.30
2019-01-19T05:50:21.002Z,9.07
2019-01-19T05:52:50.550Z,8.73
2019-01-19T05:55:20.160Z,7.40
2019-01-19T05:57:49.708Z,7.83
2019-01-19T06:00:26.205Z,7.03
2019-01-19T06:02:55.737Z,8.03
2019-01-19T06:05:25.337Z,7.97
2019-01-19T06:07:54.854Z,7.57
2019-01-19T06:10:24.396Z,7.90
2019-01-19T06:12:53.930Z,6.70
2019-01-19T06:15:23.499Z,8.00
2019-01-19T06:17:53.096Z,6.70
2019-01-19T06:20:22.653Z,6.93
2019-01-19T06:22:52.205Z,6.20
2019-01-19T06:25:21.790Z,7.37
2019-01-19T06:27:51.341Z,6.47
2019-01-19T06:30:23.749Z,6.67
2019-01-19T06:32:53.270Z,8.87
2019-01-19T06:35:22.832Z,5.47
2019-01-19T06:37:52.390Z,9.40
2019-01-19T06:40:22.001Z,8.07
2019-01-19T06:42:51.588Z,6.50
2019-01-19T06:45:23.948Z,6.67
2019-01-19T06:47:53.515Z,8.53
2019-01-19T06:50:23.052Z,5.63
2019-01-19T06:52:52.868Z,7.33
2019-01-19T06:55:26.534Z,6.60
2019-01-19T06:57:56.063Z,6.53
2019-01-19T07:00:25.695Z,5.23
2019-01-19T07:02:55.247Z,6.77
2019-01-19T07:05:24.796Z,7.90
2019-01-19T07:07:54.366Z,6.47
2019-01-19T07:10:26.412Z,5.23
2019-01-19T07:12:55.966Z,6.50
2019-01-19T07:15:25.508Z,5.47
2019-01-19T07:17:55.066Z,6.03
2019-01-19T07:20:28.115Z,4.30
2019-01-19T07:22:57.658Z,5.00
2019-01-19T07:25:27.215Z,4.57
2019-01-19T07:27:56.782Z,6.43
2019-01-19T07:30:26.333Z,7.27
2019-01-19T07:32:55.941Z,5.63
2019-01-19T07:35:27.551Z,6.33
2019-01-19T07:37:57.145Z,7.30
2019-01-19T07:40:26.697Z,6.33
2019-01-19T07:42:57.867Z,5.07
2019-01-19T07:45:27.447Z,5.53
2019-01-19T07:47:57.222Z,4.70
2019-01-19T07:50:26.785Z,6.30
2019-01-19T07:52:56.336Z,6.73
2019-01-19T07:55:25.899Z,3.83
2019-01-19T07:57:55.475Z,5.27
2019-01-19T08:00:29.434Z,5.67
2019-01-19T08:02:58.942Z,7.87
2019-01-19T08:05:28.520Z,7.67
2019-01-19T08:08:07.258Z,6.30
2019-01-19T08:10:32.670Z,4.40
2019-01-19T08:13:02.221Z,6.73
2019-01-19T08:15:34.050Z,6.00
2019-01-19T08:18:05.533Z,3.97
2019-01-19T08:20:35.143Z,6.70
2019-01-19T08:23:04.683Z,5.60
2019-01-19T08:25:34.227Z,4.50
2019-01-19T08:28:03.845Z,6.00
2019-01-19T08:30:33.482Z,5.37
2019-01-19T08:33:03.087Z,4.97
2019-01-19T08:35:32.947Z,5.03
2019-01-19T08:38:03.114Z,3.70
2019-01-19T08:40:35.586Z,5.47
2019-01-19T08:43:09.806Z,4.83
2019-01-19T08:45:41.646Z,5.10
2019-01-19T08:48:11.581Z,5.47
2019-01-19T08:50:42.979Z,7.60
2019-01-19T08:53:12.597Z,4.97
2019-01-19T08:55:43.095Z,4.27
2019-01-19T08:58:12.639Z,6.03
2019-01-19T09:00:42.223Z,6.23
2019-01-19T09:03:14.379Z,5.90
2019-01-19T09:05:46.207Z,5.97
2019-01-19T09:08:15.742Z,5.20
2019-01-19T09:10:45.299Z,10.13
2019-01-19T09:13:14.849Z,6.60
2019-01-19T09:15:45.265Z,7.80
2019-01-19T09:18:15.160Z,5.97
2019-01-19T09:20:47.795Z,9.20
2019-01-19T09:23:25.433Z,6.30
2019-01-19T09:25:58.403Z,8.90
2019-01-19T09:28:27.948Z,5.13
2019-01-19T09:30:57.494Z,7.43
2019-01-19T09:33:28.482Z,5.23
2019-01-19T09:35:58.919Z,7.67
2019-01-19T09:38:28.454Z,6.57
2019-01-19T09:40:58.044Z,4.77
2019-01-19T09:43:27.582Z,7.00
2019-01-19T09:45:57.110Z,4.87
2019-01-19T09:48:26.778Z,5.07
2019-01-19T09:50:56.279Z,6.77
2019-01-19T09:53:25.824Z,6.77
2019-01-19T09:55:55.366Z,5.13
2019-01-19T09:58:26.437Z,5.27
2019-01-19T10:00:55.950Z,5.93
2019-01-19T10:03:25.516Z,4.10
2019-01-19T10:05:55.080Z,4.17
2019-01-19T10:08:24.630Z,7.43
2019-01-19T10:10:54.524Z,6.70
2019-01-19T10:13:24.091Z,4.43
2019-01-19T10:15:53.612Z,4.40
2019-01-19T10:18:23.746Z,4.53
2019-01-19T10:20:53.440Z,6.67
2019-01-19T10:23:22.997Z,5.20
2019-01-19T10:25:52.890Z,7.43
2019-01-19T10:28:22.426Z,4.53
2019-01-19T10:30:52.005Z,3.23
2019-01-19T10:33:21.566Z,5.67
2019-01-19T10:35:51.102Z,5.33
2019-01-19T10:38:20.653Z,5.43
2019-01-19T10:40:50.213Z,4.37
2019-01-19T10:43:19.760Z,7.60
2019-01-19T10:45:49.307Z,7.37
2019-01-19T10:48:18.871Z,5.57
2019-01-19T10:50:48.539Z,5.83
2019-01-19T10:53:18.183Z,6.40
2019-01-19T10:55:47.717Z,4.67
2019-01-19T10:58:17.269Z,7.90
2019-01-19T11:00:47.256Z,5.63
2019-01-19T11:03:16.848Z,4.47
2019-01-19T11:05:46.479Z,5.67
2019-01-19T11:08:16.108Z,7.33
2019-01-19T11:10:45.674Z,5.90
2019-01-19T11:13:15.207Z,5.30
2019-01-19T11:15:47.207Z,6.70
2019-01-19T11:18:16.819Z,8.40
2019-01-19T11:20:46.352Z,5.93
2019-01-19T11:23:16.296Z,3.73
2019-01-19T11:25:45.920Z,5.50
2019-01-19T11:28:15.471Z,7.10
2019-01-19T11:30:45.595Z,6.57
2019-01-19T11:33:15.112Z,6.97
2019-01-19T11:35:44.980Z,5.77
2019-01-19T11:38:20.059Z,7.47
2019-01-19T11:40:46.844Z,6.43
2019-01-19T11:43:16.453Z,7.90
2019-01-19T11:45:45.999Z,8.77
2019-01-19T11:48:17.464Z,6.93
2019-01-19T11:50:47.298Z,8.10
2019-01-19T11:53:16.841Z,5.37
2019-01-19T11:55:46.379Z,4.27
2019-01-19T11:58:16.014Z,6.23
2019-01-19T12:00:47.595Z,4.90
2019-01-19T12:03:17.336Z,8.53
2019-01-19T12:05:46.873Z,6.03
2019-01-19T12:08:19.736Z,6.23
2019-01-19T12:10:50.054Z,4.63
2019-01-19T12:13:19.677Z,7.37
2019-01-19T12:15:49.294Z,7.93
2019-01-19T12:18:18.815Z,6.80
2019-01-19T12:20:48.406Z,6.53
2019-01-19T12:23:18.041Z,6.87
2019-01-19T12:25:47.550Z,4.60
2019-01-19T12:28:17.130Z,6.53
2019-01-19T12:30:46.703Z,4.73
2019-01-19T12:33:16.227Z,7.40
2019-01-19T12:35:45.803Z,6.07
2019-01-19T12:38:18.359Z,5.80
2019-01-19T12:40:47.877Z,4.90
2019-01-19T12:43:18.355Z,6.90
2019-01-19T12:45:53.953Z,5.93
2019-01-19T12:48:23.554Z,5.80
2019-01-19T12:50:53.103Z,6.80
2019-01-19T12:53:22.703Z,4.60
2019-01-19T12:55:53.629Z,5.10
2019-01-19T12:58:24.552Z,7.73
2019-01-19T13:00:54.445Z,5.13
2019-01-19T13:03:24.371Z,5.10
2019-01-19T13:06:07.794Z,5.73
2019-01-19T13:08:37.452Z,8.27
2019-01-19T13:11:17.460Z,5.73
2019-01-19T13:13:48.727Z,3.47
2019-01-19T13:16:37.831Z,5.57
2019-01-19T13:19:20.912Z,5.03
2019-01-19T13:22:17.647Z,3.13
2019-01-19T13:24:54.989Z,4.20
2019-01-19T13:27:54.061Z,3.83
2019-01-19T13:30:47.435Z,3.93
2019-01-19T13:33:36.370Z,5.27
2019-01-19T13:36:25.756Z,5.67
2019-01-19T13:39:02.614Z,6.10
2019-01-19T13:42:05.538Z,6.43
2019-01-19T13:45:14.737Z,4.57
2019-01-19T13:48:22.359Z,5.90
2019-01-19T13:51:02.490Z,5.87
2019-01-19T13:53:48.653Z,5.30
2019-01-19T13:56:29.973Z,6.73
2019-01-19T13:59:27.101Z,6.50
2019-01-19T14:02:22.641Z,5.87
2019-01-19T14:05:17.857Z,6.23
2019-01-19T14:08:34.704Z,7.90
2019-01-19T14:11:14.873Z,4.97
2019-01-19T14:14:07.093Z,8.23
2019-01-19T14:17:07.897Z,7.23
2019-01-19T14:19:54.723Z,7.37
2019-01-19T14:22:54.128Z,7.83
2019-01-19T14:26:00.369Z,7.93
2019-01-19T14:29:00.034Z,9.33
2019-01-19T14:31:49.368Z,6.40
2019-01-19T14:34:38.343Z,6.90
2019-01-19T14:37:22.395Z,11.43
2019-01-19T14:40:04.340Z,9.93
2019-01-19T14:42:47.603Z,8.73
2019-01-19T14:45:42.568Z,9.33
2019-01-19T14:48:28.620Z,9.20
2019-01-19T14:51:05.854Z,11.40
2019-01-19T14:53:45.655Z,12.17
2019-01-19T14:56:25.816Z,11.03
2019-01-19T14:59:12.035Z,13.47
2019-01-19T15:02:04.054Z,10.43
2019-01-19T15:04:41.117Z,10.23
2019-01-19T15:07:29.561Z,10.50
2019-01-19T15:10:21.156Z,8.97
2019-01-19T15:13:13.228Z,9.67
2019-01-19T15:16:25.943Z,9.53
2019-01-19T15:19:19.180Z,11.37
2019-01-19T15:22:03.590Z,6.70
2019-01-19T15:24:46.410Z,7.40
2019-01-19T15:27:29.372Z,7.57
2019-01-19T15:30:24.408Z,4.90
2019-01-19T15:32:58.814Z,6.87
2019-01-19T15:35:58.244Z,7.00
2019-01-19T15:38:44.848Z,5.40
2019-01-19T15:41:22.002Z,6.30
2019-01-19T15:44:01.814Z,7.10
2019-01-19T15:46:58.255Z,6.50
2019-01-19T15:49:50.055Z,8.73
2019-01-19T15:52:33.123Z,9.10
2019-01-19T15:55:30.966Z,8.27
2019-01-19T15:58:28.789Z,8.73
2019-01-19T16:01:17.772Z,8.07
2019-01-19T16:04:06.394Z,13.17
2019-01-19T16:06:57.126Z,9.67
2019-01-19T16:09:54.606Z,9.23
2019-01-19T16:12:58.797Z,10.03
2019-01-19T16:16:01.449Z,13.63
2019-01-19T16:19:14.729Z,13.30
2019-01-19T16:21:57.694Z,12.50
2019-01-19T16:24:52.464Z,12.47
2019-01-19T16:27:50.533Z,12.93
2019-01-19T16:30:27.548Z,14.80
2019-01-19T16:33:23.737Z,12.20
2019-01-19T16:36:12.656Z,11.63
2019-01-19T16:38:55.443Z,12.77
2019-01-19T16:41:38.509Z,11.87
2019-01-19T16:44:30.641Z,13.77
2019-01-19T16:47:40.698Z,14.33
2019-01-19T16:50:42.418Z,14.37
2019-01-19T16:53:35.501Z,17.47
2019-01-19T16:56:46.529Z,16.13
2019-01-19T16:59:35.631Z,14.37
2019-01-19T17:02:21.725Z,13.63
2019-01-19T17:05:05.023Z,16.23
2019-01-19T17:08:07.817Z,15.37
2019-01-19T17:11:03.768Z,13.37
2019-01-19T17:13:43.870Z,13.17
2019-01-19T17:16:26.620Z,17.73
2019-01-19T17:19:18.769Z,17.80
2019-01-19T17:22:04.686Z,17.70
2019-01-19T17:24:50.933Z,16.37
2019-01-19T17:27:27.819Z,15.23
2019-01-19T17:30:39.370Z,22.90
2019-01-19T17:33:16.094Z,21.00
2019-01-19T17:36:04.930Z,17.83
2019-01-19T17:38:47.605Z,17.03
2019-01-19T17:41:42.489Z,17.80
2019-01-19T17:44:47.835Z,19.87
2019-01-19T17:47:24.612Z,15.80
2019-01-19T17:50:25.450Z,16.23
2019-01-19T17:53:02.445Z,19.50
2019-01-19T17:55:57.290Z,17.60
2019-01-19T17:58:49.137Z,17.70
2019-01-19T18:01:48.772Z,17.53
2019-01-19T18:04:54.134Z,18.30
2019-01-19T18:07:34.155Z,18.57
2019-01-19T18:10:37.092Z,18.00
2019-01-19T18:13:43.567Z,17.33
2019-01-19T18:16:38.594Z,19.93
2019-01-19T18:19:46.970Z,19.43
2019-01-19T18:22:46.311Z,19.63
2019-01-19T18:25:29.366Z,19.77
2019-01-19T18:28:15.537Z,19.50
2019-01-19T18:31:01.881Z,18.50
2019-01-19T18:33:38.586Z,18.10
2019-01-19T18:36:26.627Z,16.27
2019-01-19T18:39:09.887Z,16.73
2019-01-19T18:41:59.023Z,18.23
2019-01-19T18:45:03.017Z,20.77
2019-01-19T18:47:46.239Z,16.80
2019-01-19T18:51:00.991Z,18.77
2019-01-19T18:53:39.624Z,15.33
2019-01-19T18:56:46.843Z,17.77
2019-01-19T18:59:50.782Z,18.77
2019-01-19T19:02:27.672Z,17.30
2019-01-19T19:05:25.565Z,17.67
2019-01-19T19:08:26.441Z,23.13
2019-01-19T19:11:26.100Z,19.03
2019-01-19T19:14:00.363Z,18.30
2019-01-19T19:16:37.723Z,21.33
2019-01-19T19:19:17.643Z,19.17
2019-01-19T19:22:03.577Z,17.97
2019-01-19T19:24:56.850Z,19.97
2019-01-19T19:27:59.523Z,22.73
2019-01-19T19:30:42.785Z,19.47
2019-01-19T19:33:31.892Z,19.20
2019-01-19T19:36:36.076Z,17.53
2019-01-19T19:39:22.020Z,18.90
2019-01-19T19:42:10.404Z,19.30
2019-01-19T19:45:06.922Z,14.40
2019-01-19T19:48:22.997Z,15.87
2019-01-19T19:51:08.984Z,18.10
2019-01-19T19:53:38.545Z,17.33
2019-01-19T19:56:06.518Z,18.37
2019-01-19T19:58:39.318Z,18.70
2019-01-19T20:01:08.824Z,17.40
2019-01-19T20:03:38.365Z,17.33
2019-01-19T20:06:07.976Z,16.63
2019-01-19T20:08:37.512Z,16.27
2019-01-19T20:11:07.080Z,19.53
2019-01-19T20:13:36.629Z,20.97
2019-01-19T20:16:08.096Z,20.50
2019-01-19T20:18:37.571Z,16.17
2019-01-19T20:21:07.147Z,20.20
2019-01-19T20:23:36.714Z,17.87
2019-01-19T20:26:06.254Z,16.87
2019-01-19T20:28:35.816Z,19.80
2019-01-19T20:31:05.364Z,19.03
2019-01-19T20:33:34.940Z,15.87
2019-01-19T20:36:05.032Z,18.47
2019-01-19T20:38:34.606Z,16.37
2019-01-19T20:41:04.172Z,17.70
2019-01-19T20:43:33.735Z,18.37
2019-01-19T20:46:03.445Z,16.53
2019-01-19T20:48:33.307Z,20.97
2019-01-19T20:51:02.876Z,19.53
2019-01-19T20:53:32.438Z,19.07
2019-01-19T20:56:01.988Z,20.43
2019-01-19T20:58:31.522Z,19.33
2019-01-19T21:01:01.118Z,19.13
2019-01-19T21:03:32.949Z,21.47
2019-01-19T21:06:02.563Z,21.80
2019-01-19T21:08:32.147Z,23.37
2019-01-19T21:11:01.699Z,19.83
2019-01-19T21:13:31.504Z,17.57
2019-01-19T21:16:01.049Z,19.00
2019-01-19T21:18:30.666Z,20.60
2019-01-19T21:21:00.219Z,18.53
2019-01-19T21:23:29.771Z,18.83
2019-01-19T21:25:59.343Z,19.47
2019-01-19T21:28:28.903Z,18.80
2019-01-19T21:30:58.470Z,19.73
2019-01-19T21:33:28.574Z,20.53
2019-01-19T21:35:58.147Z,23.10
2019-01-19T21:38:27.706Z,20.07
2019-01-19T21:40:58.518Z,24.20
2019-01-19T21:43:28.087Z,21.20
2019-01-19T21:45:57.898Z,21.13
2019-01-19T21:48:27.462Z,19.47
2019-01-19T21:50:56.998Z,21.90
2019-01-19T21:53:26.630Z,20.77
2019-01-19T21:55:56.148Z,17.07
2019-01-19T21:58:27.884Z,19.63
2019-01-19T22:00:58.797Z,20.13
2019-01-19T22:03:28.354Z,20.83
2019-01-19T22:05:57.894Z,18.03
2019-01-19T22:08:27.471Z,17.60
2019-01-19T22:10:57.095Z,17.80
2019-01-19T22:13:26.633Z,18.00
2019-01-19T22:15:57.502Z,20.17
2019-01-19T22:18:28.583Z,18.20
2019-01-19T22:20:58.109Z,17.10
2019-01-19T22:23:27.672Z,15.10
2019-01-19T22:25:57.225Z,16.43
2019-01-19T22:28:27.308Z,19.80
2019-01-19T22:30:57.162Z,18.10
2019-01-19T22:33:26.690Z,17.20
2019-01-19T22:35:56.267Z,18.23
2019-01-19T22:38:25.829Z,18.87
2019-01-19T22:40:55.515Z,39.43
2019-01-19T22:43:26.514Z,29.93
2019-01-19T22:45:56.090Z,50.73
2019-01-19T22:48:27.151Z,35.63
2019-01-19T22:50:56.752Z,25.27
2019-01-19T22:53:27.494Z,23.43
2019-01-19T22:55:57.304Z,22.60
2019-01-19T22:58:27.123Z,19.87
2019-01-19T23:01:09.957Z,18.70
2019-01-19T23:03:39.580Z,20.53
2019-01-19T23:06:09.141Z,19.77
2019-01-19T23:08:38.899Z,20.23
2019-01-19T23:11:08.516Z,16.67
2019-01-19T23:13:41.467Z,18.50
2019-01-19T23:16:11.002Z,18.87
2019-01-19T23:18:40.589Z,17.00
2019-01-19T23:21:10.211Z,17.47
2019-01-19T23:23:39.788Z,18.50
2019-01-19T23:26:09.415Z,16.97
2019-01-19T23:28:38.975Z,18.77
2019-01-19T23:31:08.599Z,17.40
2019-01-19T23:33:38.410Z,16.37
2019-01-19T23:36:07.974Z,19.60
2019-01-19T23:38:37.522Z,16.77
2019-01-19T23:41:09.124Z,18.77
2019-01-19T23:43:38.354Z,20.97
2019-01-19T23:46:07.970Z,16.80
2019-01-19T23:48:37.529Z,20.20
2019-01-19T23:51:07.173Z,17.60
2019-01-19T23:53:36.711Z,20.33
2019-01-19T23:56:06.278Z,17.83
2019-01-19T23:58:35.875Z,19.37
